sensor_id;sensor_type;location;lat;lon;timestamp;pressure;altitude;pressure_sealevel;temperature;humidity
54266;BME280;40836;39.770;2.714;2022-07-29T00:00:13;101187.16;;;27.79;62.12
54266;BME280;40836;39.770;2.714;2022-07-29T00:02:39;101162.63;;;27.71;62.08
54266;BME280;40836;39.770;2.714;2022-07-29T00:05:05;101177.66;;;27.80;61.98
54266;BME280;40836;39.770;2.714;2022-07-29T00:07:31;101177.66;;;27.73;62.26
54266;BME280;40836;39.770;2.714;2022-07-29T00:09:56;101175.34;;;27.57;62.35
54266;BME280;40836;39.770;2.714;2022-07-29T00:12:23;101182.03;;;27.67;62.32
54266;BME280;40836;39.770;2.714;2022-07-29T00:14:50;101181.25;;;27.66;62.34
54266;BME280;40836;39.770;2.714;2022-07-29T00:17:16;101184.78;;;27.67;62.06
54266;BME280;40836;39.770;2.714;2022-07-29T00:19:41;101178.53;;;27.52;62.98
54266;BME280;40836;39.770;2.714;2022-07-29T00:22:07;101180.50;;;27.55;63.28
54266;BME280;40836;39.770;2.714;2022-07-29T00:24:32;101187.63;;;27.53;62.85
54266;BME280;40836;39.770;2.714;2022-07-29T00:26:58;101182.09;;;27.49;62.76
54266;BME280;40836;39.770;2.714;2022-07-29T00:29:23;101185.69;;;27.42;62.96
54266;BME280;40836;39.770;2.714;2022-07-29T00:31:49;101176.94;;;27.48;62.89
54266;BME280;40836;39.770;2.714;2022-07-29T00:34:15;101181.72;;;27.47;62.97
54266;BME280;40836;39.770;2.714;2022-07-29T00:36:59;101161.94;;;27.38;63.21
54266;BME280;40836;39.770;2.714;2022-07-29T00:39:25;101171.84;;;27.35;63.83
54266;BME280;40836;39.770;2.714;2022-07-29T00:41:50;101154.88;;;27.22;63.62
54266;BME280;40836;39.770;2.714;2022-07-29T00:44:16;101170.31;;;27.24;64.28
54266;BME280;40836;39.770;2.714;2022-07-29T00:46:41;101159.63;;;27.15;63.87
54266;BME280;40836;39.770;2.714;2022-07-29T00:49:07;101165.94;;;27.22;63.74
54266;BME280;40836;39.770;2.714;2022-07-29T00:51:35;101156.09;;;27.14;63.87
54266;BME280;40836;39.770;2.714;2022-07-29T00:54:02;101165.59;;;27.13;64.00
54266;BME280;40836;39.770;2.714;2022-07-29T00:56:30;101160.84;;;27.07;64.56
54266;BME280;40836;39.770;2.714;2022-07-29T00:58:57;101166.75;;;27.05;64.47
54266;BME280;40836;39.770;2.714;2022-07-29T01:01:23;101165.19;;;27.04;64.09
54266;BME280;40836;39.770;2.714;2022-07-29T01:03:48;101162.41;;;26.97;64.60
54266;BME280;40836;39.770;2.714;2022-07-29T01:06:15;101153.31;;;26.96;64.95
54266;BME280;40836;39.770;2.714;2022-07-29T01:08:42;101160.03;;;26.99;64.95
54266;BME280;40836;39.770;2.714;2022-07-29T01:11:08;101162.81;;;26.95;64.44
54266;BME280;40836;39.770;2.714;2022-07-29T01:13:34;101164.38;;;26.96;64.67
54266;BME280;40836;39.770;2.714;2022-07-29T01:16:07;101167.94;;;26.93;64.34
54266;BME280;40836;39.770;2.714;2022-07-29T01:18:39;101153.72;;;26.81;64.46
54266;BME280;40836;39.770;2.714;2022-07-29T01:24:07;101158.09;;;26.78;64.89
54266;BME280;40836;39.770;2.714;2022-07-29T01:26:49;101156.13;;;26.79;64.99
54266;BME280;40836;39.770;2.714;2022-07-29T01:29:24;101158.09;;;26.78;65.04
54266;BME280;40836;39.770;2.714;2022-07-29T01:32:02;101139.13;;;26.66;65.37
54266;BME280;40836;39.770;2.714;2022-07-29T01:34:45;101138.72;;;26.67;65.20
54266;BME280;40836;39.770;2.714;2022-07-29T01:37:23;101146.22;;;26.70;65.03
54266;BME280;40836;39.770;2.714;2022-07-29T01:39:52;101146.63;;;26.69;65.30
54266;BME280;40836;39.770;2.714;2022-07-29T01:44:59;101149.78;;;26.60;65.60
54266;BME280;40836;39.770;2.714;2022-07-29T01:47:35;101147.81;;;26.61;65.58
54266;BME280;40836;39.770;2.714;2022-07-29T01:50:07;101150.19;;;26.59;65.36
54266;BME280;40836;39.770;2.714;2022-07-29T01:52:44;101156.09;;;26.53;65.54
54266;BME280;40836;39.770;2.714;2022-07-29T01:55:16;101158.47;;;26.48;65.74
54266;BME280;40836;39.770;2.714;2022-07-29T01:57:46;101159.25;;;26.48;65.66
54266;BME280;40836;39.770;2.714;2022-07-29T02:00:13;101159.22;;;26.45;65.80
54266;BME280;40836;39.770;2.714;2022-07-29T02:02:41;101167.53;;;26.45;66.12
54266;BME280;40836;39.770;2.714;2022-07-29T02:05:10;101166.34;;;26.35;67.04
54266;BME280;40836;39.770;2.714;2022-07-29T02:07:36;101150.53;;;26.28;66.29
54266;BME280;40836;39.770;2.714;2022-07-29T02:10:04;101169.50;;;26.41;66.57
54266;BME280;40836;39.770;2.714;2022-07-29T02:12:31;101156.47;;;26.30;66.48
54266;BME280;40836;39.770;2.714;2022-07-29T02:15:00;101160.00;;;26.42;66.28
54266;BME280;40836;39.770;2.714;2022-07-29T02:17:31;101161.22;;;26.44;66.12
54266;BME280;40836;39.770;2.714;2022-07-29T02:20:00;101165.19;;;26.54;65.87
54266;BME280;40836;39.770;2.714;2022-07-29T02:22:29;101162.44;;;26.54;65.36
54266;BME280;40836;39.770;2.714;2022-07-29T02:39:52;101167.97;;;26.54;65.07
54266;BME280;40836;39.770;2.714;2022-07-29T02:42:21;101165.59;;;26.52;65.15
54266;BME280;40836;39.770;2.714;2022-07-29T02:48:15;101172.31;;;26.48;64.98
54266;BME280;40836;39.770;2.714;2022-07-29T02:50:49;101175.81;;;26.38;65.40
54266;BME280;40836;39.770;2.714;2022-07-29T02:53:21;101172.25;;;26.34;65.60
54266;BME280;40836;39.770;2.714;2022-07-29T02:56:01;101167.13;;;26.32;65.35
54266;BME280;40836;39.770;2.714;2022-07-29T03:01:51;101153.66;;;26.13;66.84
54266;BME280;40836;39.770;2.714;2022-07-29T03:04:18;101148.16;;;26.16;66.27
54266;BME280;40836;39.770;2.714;2022-07-29T03:06:45;101138.25;;;26.12;66.26
54266;BME280;40836;39.770;2.714;2022-07-29T03:09:11;101138.63;;;26.06;66.21
54266;BME280;40836;39.770;2.714;2022-07-29T03:11:38;101135.50;;;26.04;66.49
54266;BME280;40836;39.770;2.714;2022-07-29T03:14:04;101137.47;;;26.08;66.42
54266;BME280;40836;39.770;2.714;2022-07-29T03:16:30;101131.16;;;26.03;66.59
54266;BME280;40836;39.770;2.714;2022-07-29T03:18:57;101131.16;;;26.03;66.69
54266;BME280;40836;39.770;2.714;2022-07-29T03:21:22;101138.25;;;26.01;66.67
54266;BME280;40836;39.770;2.714;2022-07-29T03:23:48;101138.63;;;25.99;66.38
54266;BME280;40836;39.770;2.714;2022-07-29T03:26:13;101148.88;;;25.95;66.87
54266;BME280;40836;39.770;2.714;2022-07-29T03:28:39;101149.28;;;25.94;67.34
54266;BME280;40836;39.770;2.714;2022-07-29T03:31:04;101153.22;;;25.93;67.47
54266;BME280;40836;39.770;2.714;2022-07-29T03:33:30;101150.84;;;25.91;66.79
54266;BME280;40836;39.770;2.714;2022-07-29T03:35:56;101142.09;;;25.78;67.16
54266;BME280;40836;39.770;2.714;2022-07-29T03:38:24;101145.72;;;25.90;67.51
54266;BME280;40836;39.770;2.714;2022-07-29T03:40:53;101155.56;;;25.83;67.53
54266;BME280;40836;39.770;2.714;2022-07-29T03:43:19;101149.25;;;25.87;67.27
54266;BME280;40836;39.770;2.714;2022-07-29T03:45:49;101149.25;;;25.87;67.76
54266;BME280;40836;39.770;2.714;2022-07-29T03:48:18;101146.50;;;25.90;67.19
54266;BME280;40836;39.770;2.714;2022-07-29T03:50:44;101144.13;;;25.89;67.28
54266;BME280;40836;39.770;2.714;2022-07-29T03:53:11;101147.28;;;25.87;67.05
54266;BME280;40836;39.770;2.714;2022-07-29T03:55:41;101150.03;;;25.83;67.20
54266;BME280;40836;39.770;2.714;2022-07-29T03:58:07;101141.31;;;25.74;67.67
54266;BME280;40836;39.770;2.714;2022-07-29T04:00:35;101143.66;;;25.72;67.77
54266;BME280;40836;39.770;2.714;2022-07-29T04:03:03;101140.47;;;25.70;68.04
54266;BME280;40836;39.770;2.714;2022-07-29T04:05:29;101128.63;;;25.63;67.62
54266;BME280;40836;39.770;2.714;2022-07-29T04:07:54;101146.41;;;25.69;67.70
54266;BME280;40836;39.770;2.714;2022-07-29T04:10:20;101149.97;;;25.69;67.21
54266;BME280;40836;39.770;2.714;2022-07-29T04:12:46;101153.09;;;25.68;67.42
54266;BME280;40836;39.770;2.714;2022-07-29T04:15:11;101148.38;;;25.65;67.22
54266;BME280;40836;39.770;2.714;2022-07-29T04:17:37;101142.00;;;25.57;67.95
54266;BME280;40836;39.770;2.714;2022-07-29T04:20:04;101152.28;;;25.60;68.14
54266;BME280;40836;39.770;2.714;2022-07-29T04:22:30;101150.69;;;25.55;67.92
54266;BME280;40836;39.770;2.714;2022-07-29T04:24:55;101154.59;;;25.51;68.28
54266;BME280;40836;39.770;2.714;2022-07-29T04:27:21;101156.59;;;25.50;68.47
54266;BME280;40836;39.770;2.714;2022-07-29T04:29:46;101149.50;;;25.49;68.51
54266;BME280;40836;39.770;2.714;2022-07-29T04:32:12;101161.69;;;25.48;68.17
54266;BME280;40836;39.770;2.714;2022-07-29T04:34:37;101160.50;;;25.46;68.15
54266;BME280;40836;39.770;2.714;2022-07-29T04:37:03;101158.91;;;25.45;68.04
54266;BME280;40836;39.770;2.714;2022-07-29T04:39:28;101170.34;;;25.43;67.93
54266;BME280;40836;39.770;2.714;2022-07-29T04:41:55;101158.44;;;25.32;68.41
54266;BME280;40836;39.770;2.714;2022-07-29T04:44:21;101143.78;;;25.13;68.34
54266;BME280;40836;39.770;2.714;2022-07-29T04:46:47;101175.06;;;25.35;68.89
54266;BME280;40836;39.770;2.714;2022-07-29T04:49:12;101177.81;;;25.35;68.48
54266;BME280;40836;39.770;2.714;2022-07-29T04:51:38;101182.59;;;25.42;68.41
54266;BME280;40836;39.770;2.714;2022-07-29T04:54:04;101180.59;;;25.35;68.70
54266;BME280;40836;39.770;2.714;2022-07-29T04:56:29;101186.88;;;25.36;68.90
54266;BME280;40836;39.770;2.714;2022-07-29T04:58:55;101192.75;;;25.31;68.81
54266;BME280;40836;39.770;2.714;2022-07-29T05:01:20;101195.09;;;25.29;69.23
54266;BME280;40836;39.770;2.714;2022-07-29T05:03:46;101197.88;;;25.29;68.95
54266;BME280;40836;39.770;2.714;2022-07-29T05:06:11;101201.03;;;25.31;69.08
54266;BME280;40836;39.770;2.714;2022-07-29T05:08:37;101207.38;;;25.38;68.49
54266;BME280;40836;39.770;2.714;2022-07-29T05:11:03;101207.44;;;25.42;69.23
54266;BME280;40836;39.770;2.714;2022-07-29T05:13:29;101188.81;;;25.32;69.20
54266;BME280;40836;39.770;2.714;2022-07-29T05:15:54;101211.34;;;25.41;68.82
54266;BME280;40836;39.770;2.714;2022-07-29T05:18:20;101207.81;;;25.41;68.78
54266;BME280;40836;39.770;2.714;2022-07-29T05:20:46;101211.34;;;25.41;68.70
54266;BME280;40836;39.770;2.714;2022-07-29T05:23:11;101210.56;;;25.41;68.90
54266;BME280;40836;39.770;2.714;2022-07-29T05:25:38;101197.56;;;25.41;68.56
54266;BME280;40836;39.770;2.714;2022-07-29T05:28:03;101212.22;;;25.49;68.77
54266;BME280;40836;39.770;2.714;2022-07-29T05:30:29;101214.97;;;25.49;68.46
54266;BME280;40836;39.770;2.714;2022-07-29T05:32:54;101213.78;;;25.50;68.29
54266;BME280;40836;39.770;2.714;2022-07-29T05:35:20;101201.91;;;25.42;68.73
54266;BME280;40836;39.770;2.714;2022-07-29T05:37:45;101211.81;;;25.50;68.63
54266;BME280;40836;39.770;2.714;2022-07-29T05:40:11;101195.22;;;25.43;68.50
54266;BME280;40836;39.770;2.714;2022-07-29T05:42:36;101209.81;;;25.47;68.64
54266;BME280;40836;39.770;2.714;2022-07-29T05:45:02;101224.09;;;25.60;68.26
54266;BME280;40836;39.770;2.714;2022-07-29T05:47:28;101222.91;;;25.61;68.84
54266;BME280;40836;39.770;2.714;2022-07-29T05:49:53;101221.31;;;25.60;68.68
54266;BME280;40836;39.770;2.714;2022-07-29T05:52:19;101205.91;;;25.52;68.75
54266;BME280;40836;39.770;2.714;2022-07-29T05:54:45;101222.16;;;25.68;68.53
54266;BME280;40836;39.770;2.714;2022-07-29T05:57:21;101209.97;;;25.76;68.66
54266;BME280;40836;39.770;2.714;2022-07-29T05:59:48;101215.97;;;25.89;68.76
54266;BME280;40836;39.770;2.714;2022-07-29T06:02:14;101205.34;;;26.01;68.66
54266;BME280;40836;39.770;2.714;2022-07-29T06:04:40;101207.00;;;26.20;67.62
54266;BME280;40836;39.770;2.714;2022-07-29T06:07:05;101205.03;;;26.28;67.08
54266;BME280;40836;39.770;2.714;2022-07-29T06:09:32;101206.69;;;26.50;66.48
54266;BME280;40836;39.770;2.714;2022-07-29T06:11:57;101212.63;;;26.67;65.80
54266;BME280;40836;39.770;2.714;2022-07-29T06:14:23;101211.84;;;26.88;65.81
54266;BME280;40836;39.770;2.714;2022-07-29T06:16:49;101208.28;;;27.05;65.21
54266;BME280;40836;39.770;2.714;2022-07-29T06:19:14;101213.44;;;27.17;64.84
54266;BME280;40836;39.770;2.714;2022-07-29T06:21:43;101216.53;;;27.41;64.23
54266;BME280;40836;39.770;2.714;2022-07-29T06:24:10;101225.19;;;27.61;63.07
54266;BME280;40836;39.770;2.714;2022-07-29T06:26:35;101229.94;;;27.78;63.13
54266;BME280;40836;39.770;2.714;2022-07-29T06:29:01;101229.09;;;27.85;62.35
54266;BME280;40836;39.770;2.714;2022-07-29T06:31:26;101225.91;;;27.86;62.05
54266;BME280;40836;39.770;2.714;2022-07-29T06:33:52;101235.31;;;28.10;60.83
54266;BME280;40836;39.770;2.714;2022-07-29T06:36:18;101235.63;;;28.27;61.08
54266;BME280;40836;39.770;2.714;2022-07-29T06:38:43;101233.22;;;28.40;60.03
54266;BME280;40836;39.770;2.714;2022-07-29T06:41:09;101241.03;;;28.52;59.48
54266;BME280;40836;39.770;2.714;2022-07-29T06:43:39;101232.63;;;28.66;59.05
54266;BME280;40836;39.770;2.714;2022-07-29T06:46:14;101241.66;;;28.77;58.05
54266;BME280;40836;39.770;2.714;2022-07-29T06:48:41;101238.00;;;28.91;57.77
54266;BME280;40836;39.770;2.714;2022-07-29T06:51:08;101242.69;;;29.01;56.42
54266;BME280;40836;39.770;2.714;2022-07-29T06:53:34;101238.94;;;29.19;56.82
54266;BME280;40836;39.770;2.714;2022-07-29T06:56:02;101240.38;;;29.34;56.06
54266;BME280;40836;39.770;2.714;2022-07-29T06:58:28;101248.53;;;29.52;56.41
54266;BME280;40836;39.770;2.714;2022-07-29T07:00:55;101244.84;;;29.66;55.08
54266;BME280;40836;39.770;2.714;2022-07-29T07:03:21;101247.44;;;29.80;54.43
54266;BME280;40836;39.770;2.714;2022-07-29T07:05:48;101231.59;;;29.77;53.83
54266;BME280;40836;39.770;2.714;2022-07-29T07:08:14;101237.00;;;29.91;52.54
54266;BME280;40836;39.770;2.714;2022-07-29T07:10:41;101248.59;;;30.17;52.74
54266;BME280;40836;39.770;2.714;2022-07-29T07:13:07;101252.75;;;30.32;53.58
54266;BME280;40836;39.770;2.714;2022-07-29T07:15:33;101234.94;;;30.26;52.50
54266;BME280;40836;39.770;2.714;2022-07-29T07:17:58;101251.72;;;30.50;51.30
54266;BME280;40836;39.770;2.714;2022-07-29T07:20:24;101229.47;;;30.50;52.14
54266;BME280;40836;39.770;2.714;2022-07-29T07:22:50;101241.81;;;30.72;52.27
54266;BME280;40836;39.770;2.714;2022-07-29T07:25:15;101238.41;;;30.88;51.45
54266;BME280;40836;39.770;2.714;2022-07-29T07:27:44;101236.59;;;31.01;50.98
54266;BME280;40836;39.770;2.714;2022-07-29T07:30:10;101234.78;;;31.14;50.76
54266;BME280;40836;39.770;2.714;2022-07-29T07:32:36;101219.63;;;31.15;50.64
54266;BME280;40836;39.770;2.714;2022-07-29T07:35:03;101243.28;;;31.27;50.19
54266;BME280;40836;39.770;2.714;2022-07-29T07:37:29;101245.56;;;31.32;49.76
54266;BME280;40836;39.770;2.714;2022-07-29T07:39:55;101239.53;;;31.37;49.13
54266;BME280;40836;39.770;2.714;2022-07-29T07:42:20;101241.25;;;31.51;49.95
54266;BME280;40836;39.770;2.714;2022-07-29T07:44:46;101234.19;;;31.47;48.23
54266;BME280;40836;39.770;2.714;2022-07-29T07:47:13;101229.47;;;31.64;49.72
54266;BME280;40836;39.770;2.714;2022-07-29T07:49:39;101235.28;;;31.73;49.16
54266;BME280;40836;39.770;2.714;2022-07-29T07:52:04;101230.63;;;31.86;49.14
54266;BME280;40836;39.770;2.714;2022-07-29T07:54:30;101237.69;;;31.91;47.45
54266;BME280;40836;39.770;2.714;2022-07-29T07:56:56;101240.19;;;32.05;47.77
54266;BME280;40836;39.770;2.714;2022-07-29T07:59:21;101232.97;;;32.08;47.81
54266;BME280;40836;39.770;2.714;2022-07-29T08:01:47;101236.38;;;32.15;47.36
54266;BME280;40836;39.770;2.714;2022-07-29T08:04:13;101232.22;;;32.23;47.42
54266;BME280;40836;39.770;2.714;2022-07-29T08:06:38;101232.66;;;32.22;46.46
54266;BME280;40836;39.770;2.714;2022-07-29T08:09:04;101200.53;;;32.14;47.00
54266;BME280;40836;39.770;2.714;2022-07-29T08:11:30;101227.78;;;32.42;46.83
54266;BME280;40836;39.770;2.714;2022-07-29T08:13:55;101225.91;;;32.56;46.66
54266;BME280;40836;39.770;2.714;2022-07-29T08:16:21;101220.16;;;32.63;47.44
54266;BME280;40836;39.770;2.714;2022-07-29T08:18:47;101217.38;;;32.63;47.90
54266;BME280;40836;39.770;2.714;2022-07-29T08:21:14;101212.03;;;32.68;45.13
54266;BME280;40836;39.770;2.714;2022-07-29T08:23:41;101197.81;;;32.63;46.58
54266;BME280;40836;39.770;2.714;2022-07-29T08:26:15;101214.91;;;32.81;47.27
54266;BME280;40836;39.770;2.714;2022-07-29T08:28:43;101223.44;;;32.90;48.46
54266;BME280;40836;39.770;2.714;2022-07-29T08:31:11;101218.53;;;32.94;47.54
54266;BME280;40836;39.770;2.714;2022-07-29T08:33:38;101219.34;;;32.95;48.30
54266;BME280;40836;39.770;2.714;2022-07-29T08:36:04;101219.63;;;33.01;47.98
54266;BME280;40836;39.770;2.714;2022-07-29T08:38:29;101219.34;;;33.11;47.93
54266;BME280;40836;39.770;2.714;2022-07-29T08:40:55;101218.03;;;33.16;47.14
54266;BME280;40836;39.770;2.714;2022-07-29T08:43:20;101217.59;;;33.17;47.59
54266;BME280;40836;39.770;2.714;2022-07-29T08:45:48;101227.97;;;33.17;47.64
54266;BME280;40836;39.770;2.714;2022-07-29T08:48:17;101217.66;;;33.30;47.33
54266;BME280;40836;39.770;2.714;2022-07-29T08:50:44;101209.69;;;33.29;46.83
54266;BME280;40836;39.770;2.714;2022-07-29T08:53:11;101212.44;;;33.16;46.22
54266;BME280;40836;39.770;2.714;2022-07-29T08:55:48;101212.34;;;33.19;46.60
54266;BME280;40836;39.770;2.714;2022-07-29T08:58:15;101212.13;;;33.27;46.56
54266;BME280;40836;39.770;2.714;2022-07-29T09:00:43;101217.72;;;33.27;46.62
54266;BME280;40836;39.770;2.714;2022-07-29T09:03:12;101224.25;;;33.36;46.09
54266;BME280;40836;39.770;2.714;2022-07-29T09:05:41;101213.94;;;33.20;45.45
54266;BME280;40836;39.770;2.714;2022-07-29T09:08:08;101220.44;;;33.30;45.54
54266;BME280;40836;39.770;2.714;2022-07-29T09:10:35;101227.59;;;33.31;45.13
54266;BME280;40836;39.770;2.714;2022-07-29T09:13:00;101233.63;;;33.30;45.93
54266;BME280;40836;39.770;2.714;2022-07-29T09:15:26;101238.78;;;33.31;45.38
54266;BME280;40836;39.770;2.714;2022-07-29T09:17:51;101235.19;;;33.31;46.21
54266;BME280;40836;39.770;2.714;2022-07-29T09:20:19;101242.25;;;33.35;45.69
54266;BME280;40836;39.770;2.714;2022-07-29T09:22:46;101240.59;;;33.38;45.20
54266;BME280;40836;39.770;2.714;2022-07-29T09:25:14;101248.63;;;33.36;43.97
54266;BME280;40836;39.770;2.714;2022-07-29T09:27:40;101255.34;;;33.38;43.41
54266;BME280;40836;39.770;2.714;2022-07-29T09:30:08;101245.41;;;33.37;43.55
54266;BME280;40836;39.770;2.714;2022-07-29T09:32:57;101252.91;;;33.40;43.93
54266;BME280;40836;39.770;2.714;2022-07-29T09:35:24;101258.94;;;33.39;45.46
54266;BME280;40836;39.770;2.714;2022-07-29T09:37:51;101260.34;;;33.31;44.99
54266;BME280;40836;39.770;2.714;2022-07-29T09:40:25;101251.19;;;33.30;45.97
54266;BME280;40836;39.770;2.714;2022-07-29T09:42:52;101251.63;;;33.29;45.50
54266;BME280;40836;39.770;2.714;2022-07-29T09:45:31;101261.13;;;33.31;44.81
54266;BME280;40836;39.770;2.714;2022-07-29T09:47:58;101259.91;;;33.32;46.15
54266;BME280;40836;39.770;2.714;2022-07-29T09:50:54;101262.94;;;33.38;46.53
54266;BME280;40836;39.770;2.714;2022-07-29T09:53:36;101266.47;;;33.26;45.34
54266;BME280;40836;39.770;2.714;2022-07-29T09:56:03;101253.38;;;33.22;47.05
54266;BME280;40836;39.770;2.714;2022-07-29T09:58:29;101265.91;;;33.47;46.91
54266;BME280;40836;39.770;2.714;2022-07-29T10:00:55;101257.63;;;33.43;46.75
54266;BME280;40836;39.770;2.714;2022-07-29T10:03:21;101256.03;;;33.42;46.23
54266;BME280;40836;39.770;2.714;2022-07-29T10:06:12;101266.25;;;33.49;46.57
54266;BME280;40836;39.770;2.714;2022-07-29T10:08:38;101247.84;;;33.35;46.33
54266;BME280;40836;39.770;2.714;2022-07-29T10:11:10;101266.44;;;33.42;47.14
54266;BME280;40836;39.770;2.714;2022-07-29T10:13:36;101260.16;;;33.38;46.96
54266;BME280;40836;39.770;2.714;2022-07-29T10:16:02;101259.47;;;33.34;47.17
54266;BME280;40836;39.770;2.714;2022-07-29T10:18:28;101260.50;;;33.40;46.80
54266;BME280;40836;39.770;2.714;2022-07-29T10:20:54;101272.56;;;33.37;47.00
54266;BME280;40836;39.770;2.714;2022-07-29T10:23:20;101277.81;;;33.35;47.78
54266;BME280;40836;39.770;2.714;2022-07-29T10:25:46;101243.84;;;33.20;48.26
54266;BME280;40836;39.770;2.714;2022-07-29T10:28:11;101281.84;;;33.34;48.15
54266;BME280;40836;39.770;2.714;2022-07-29T10:30:38;101278.59;;;33.35;48.32
54266;BME280;40836;39.770;2.714;2022-07-29T10:33:29;101278.69;;;33.32;48.73
54266;BME280;40836;39.770;2.714;2022-07-29T10:46:25;101285.69;;;33.40;46.45
54266;BME280;40836;39.770;2.714;2022-07-29T10:49:12;101286.56;;;33.37;46.76
54266;BME280;40836;39.770;2.714;2022-07-29T10:57:30;101284.19;;;33.35;47.56
54266;BME280;40836;39.770;2.714;2022-07-29T11:05:22;101277.72;;;33.38;46.11
54266;BME280;40836;39.770;2.714;2022-07-29T11:10:41;101263.06;;;33.34;45.95
54266;BME280;40836;39.770;2.714;2022-07-29T11:13:07;101276.31;;;33.47;46.26
54266;BME280;40836;39.770;2.714;2022-07-29T11:15:54;101270.72;;;33.47;46.29
54266;BME280;40836;39.770;2.714;2022-07-29T11:18:20;101280.09;;;33.40;46.95
54266;BME280;40836;39.770;2.714;2022-07-29T11:20:48;101274.16;;;33.21;47.75
54266;BME280;40836;39.770;2.714;2022-07-29T11:23:23;101271.38;;;33.21;48.10
54266;BME280;40836;39.770;2.714;2022-07-29T11:28:34;101263.03;;;33.05;48.30
54266;BME280;40836;39.770;2.714;2022-07-29T11:31:01;101269.91;;;33.01;47.81
54266;BME280;40836;39.770;2.714;2022-07-29T11:33:31;101274.19;;;33.05;48.80
54266;BME280;40836;39.770;2.714;2022-07-29T11:36:11;101255.59;;;32.98;47.96
54266;BME280;40836;39.770;2.714;2022-07-29T11:38:37;101269.13;;;33.00;48.15
54266;BME280;40836;39.770;2.714;2022-07-29T11:41:28;101278.38;;;33.13;47.74
54266;BME280;40836;39.770;2.714;2022-07-29T11:43:59;101287.19;;;33.12;48.24
54266;BME280;40836;39.770;2.714;2022-07-29T11:46:48;101279.88;;;33.02;47.86
54266;BME280;40836;39.770;2.714;2022-07-29T11:51:53;101295.59;;;33.12;48.85
54266;BME280;40836;39.770;2.714;2022-07-29T11:54:25;101292.78;;;33.12;48.36
54266;BME280;40836;39.770;2.714;2022-07-29T11:56:54;101302.72;;;33.13;48.65
54266;BME280;40836;39.770;2.714;2022-07-29T11:59:20;101295.13;;;33.13;47.36
54266;BME280;40836;39.770;2.714;2022-07-29T12:01:59;101294.91;;;33.08;48.35
54266;BME280;40836;39.770;2.714;2022-07-29T12:04:25;101305.81;;;33.02;48.14
54266;BME280;40836;39.770;2.714;2022-07-29T12:06:52;101306.59;;;33.03;48.51
54266;BME280;40836;39.770;2.714;2022-07-29T12:09:19;101305.25;;;32.91;48.70
54266;BME280;40836;39.770;2.714;2022-07-29T12:11:46;101271.22;;;32.80;48.15
54266;BME280;40836;39.770;2.714;2022-07-29T12:14:30;101308.13;;;32.87;48.93
54266;BME280;40836;39.770;2.714;2022-07-29T12:16:57;101309.09;;;32.97;48.28
54266;BME280;40836;39.770;2.714;2022-07-29T12:19:22;101304.91;;;32.89;48.85
54266;BME280;40836;39.770;2.714;2022-07-29T12:21:50;101309.91;;;32.97;48.36
54266;BME280;40836;39.770;2.714;2022-07-29T12:24:17;101310.25;;;32.99;48.27
54266;BME280;40836;39.770;2.714;2022-07-29T12:26:55;101309.91;;;32.97;47.97
54266;BME280;40836;39.770;2.714;2022-07-29T12:29:20;101304.22;;;33.01;47.00
54266;BME280;40836;39.770;2.714;2022-07-29T12:31:51;101316.72;;;32.96;47.70
54266;BME280;40836;39.770;2.714;2022-07-29T12:34:20;101304.81;;;32.92;47.85
54266;BME280;40836;39.770;2.714;2022-07-29T12:36:46;101312.25;;;32.99;48.08
54266;BME280;40836;39.770;2.714;2022-07-29T12:39:12;101303.88;;;32.99;48.33
54266;BME280;40836;39.770;2.714;2022-07-29T12:41:38;101294.06;;;32.91;48.22
54266;BME280;40836;39.770;2.714;2022-07-29T12:44:04;101297.06;;;33.00;48.08
54266;BME280;40836;39.770;2.714;2022-07-29T12:46:29;101308.69;;;32.98;48.21
54266;BME280;40836;39.770;2.714;2022-07-29T12:48:55;101306.88;;;32.72;49.48
54266;BME280;40836;39.770;2.714;2022-07-29T12:51:29;101311.44;;;32.82;49.30
54266;BME280;40836;39.770;2.714;2022-07-29T12:54:09;101287.50;;;32.65;49.64
54266;BME280;40836;39.770;2.714;2022-07-29T12:56:42;101314.25;;;32.82;49.00
54266;BME280;40836;39.770;2.714;2022-07-29T12:59:25;101294.31;;;32.64;49.41
54266;BME280;40836;39.770;2.714;2022-07-29T13:01:51;101306.38;;;32.77;49.59
54266;BME280;40836;39.770;2.714;2022-07-29T13:04:28;101293.34;;;32.54;51.01
54266;BME280;40836;39.770;2.714;2022-07-29T13:07:04;101298.97;;;32.70;50.07
54266;BME280;40836;39.770;2.714;2022-07-29T13:09:42;101298.50;;;32.72;49.90
54266;BME280;40836;39.770;2.714;2022-07-29T13:12:10;101297.22;;;32.76;50.10
54266;BME280;40836;39.770;2.714;2022-07-29T13:14:46;101292.22;;;32.84;49.73
54266;BME280;40836;39.770;2.714;2022-07-29T13:17:16;101295.56;;;32.63;50.35
54266;BME280;40836;39.770;2.714;2022-07-29T13:19:47;101288.66;;;32.67;50.13
54266;BME280;40836;39.770;2.714;2022-07-29T13:22:15;101289.94;;;32.46;51.45
54266;BME280;40836;39.770;2.714;2022-07-29T13:27:19;101293.63;;;32.60;50.75
54266;BME280;40836;39.770;2.714;2022-07-29T13:29:46;101291.81;;;32.69;50.84
54266;BME280;40836;39.770;2.714;2022-07-29T13:32:12;101289.97;;;32.63;50.72
54266;BME280;40836;39.770;2.714;2022-07-29T13:34:38;101279.31;;;32.74;49.91
54266;BME280;40836;39.770;2.714;2022-07-29T13:37:04;101285.69;;;32.58;50.29
54266;BME280;40836;39.770;2.714;2022-07-29T13:39:29;101287.88;;;32.83;49.63
54266;BME280;40836;39.770;2.714;2022-07-29T13:41:55;101279.31;;;32.74;49.61
54266;BME280;40836;39.770;2.714;2022-07-29T13:44:21;101264.41;;;32.81;49.87
54266;BME280;40836;39.770;2.714;2022-07-29T13:46:46;101265.19;;;32.97;49.20
54266;BME280;40836;39.770;2.714;2022-07-29T13:49:12;101269.22;;;32.96;49.12
54266;BME280;40836;39.770;2.714;2022-07-29T13:51:37;101269.91;;;33.01;49.10
54266;BME280;40836;39.770;2.714;2022-07-29T13:54:04;101261.78;;;32.90;49.02